Time,TemperatureF,DewpointF,PressureIn,WindDirection,WindDirectionDegrees,WindSpeedMPH,WindSpeedGustMPH,Humidity,HourlyPrecipIn,Conditions,Clouds,dailyrainin,SoftwareType,DateUTC
2013-01-06 00:00:00,34.9,33.1,29.93,SSW,204,13.4,19.2,93,0.00,,OVC013,0.00,VWS V14.00,2013-01-06 06:00:00,
2013-01-06 00:10:00,34.9,33.1,29.91,SW,214,11.6,13.4,93,0.00,,OVC013,0.00,VWS V14.00,2013-01-06 06:10:00,
2013-01-06 00:20:00,34.9,33.1,29.91,SW,223,20.1,20.1,93,0.00,,OVC013,0.00,VWS V14.00,2013-01-06 06:20:00,
2013-01-06 00:30:00,35.1,33.2,29.91,SSW,208,8.1,20.1,93,0.00,,OVC013,0.00,VWS V14.00,2013-01-06 06:30:00,
2013-01-06 00:40:00,35.1,33.2,29.91,South,190,10.7,17.4,93,0.00,,OVC011,0.00,VWS V14.00,2013-01-06 06:40:00,
2013-01-06 00:50:00,35.2,33.4,29.91,SW,230,12.5,17.4,93,0.00,,OVC014,0.00,VWS V14.00,2013-01-06 06:50:00,
2013-01-06 01:00:00,35.6,33.5,29.91,SW,222,15.2,25.5,92,0.00,,OVC014,0.00,VWS V14.00,2013-01-06 07:00:00,
2013-01-06 01:10:00,35.6,33.2,29.91,WSW,241,8.1,17.4,91,0.00,,OVC014,0.00,VWS V14.00,2013-01-06 07:10:00,
2013-01-06 01:20:00,35.6,33.0,29.91,SW,235,6.3,22.8,90,0.00,,OVC014,0.00,VWS V14.00,2013-01-06 07:20:00,
2013-01-06 01:30:00,35.6,33.0,29.91,WSW,245,9.8,17.4,90,0.00,,OVC031,0.00,VWS V14.00,2013-01-06 07:30:00,
2013-01-06 01:40:00,35.4,33.1,29.91,WSW,242,12.5,17.4,91,0.00,,OVC031,0.00,VWS V14.00,2013-01-06 07:40:00,
2013-01-06 01:50:00,35.4,32.8,29.91,SW,228,11.6,18.3,90,0.00,,OVC031,0.00,VWS V14.00,2013-01-06 07:50:00,
2013-01-06 02:00:00,35.4,32.8,29.91,SSW,195,8.1,17.4,90,0.00,,OVC031,0.00,VWS V14.00,2013-01-06 08:00:00,
2013-01-06 02:10:00,35.4,32.8,29.91,SW,217,8.1,17.4,90,0.00,,OVC025,0.00,VWS V14.00,2013-01-06 08:10:00,
2013-01-06 02:20:00,35.4,32.8,29.91,West,263,14.3,22.8,90,0.00,,OVC025,0.00,VWS V14.00,2013-01-06 08:20:00,
2013-01-06 02:30:00,35.4,32.8,29.91,WSW,241,16.6,24.6,90,0.00,,OVC110,0.00,VWS V14.00,2013-01-06 08:30:00,
2013-01-06 02:40:00,35.4,32.8,29.91,WSW,241,16.1,24.6,90,0.00,,OVC110,0.00,VWS V14.00,2013-01-06 08:40:00,
2013-01-06 02:50:00,34.7,31.8,29.91,SW,234,16.6,21.0,89,0.00,,OVC110,0.00,VWS V14.00,2013-01-06 08:50:00,
2013-01-06 03:00:00,33.6,30.7,29.91,WSW,258,11.6,17.4,89,0.00,,BKN110,0.00,VWS V14.00,2013-01-06 09:00:00,
2013-01-06 03:10:00,32.2,28.5,29.93,West,260,20.1,25.5,86,0.00,,BKN110,0.00,VWS V14.00,2013-01-06 09:10:00,
2013-01-06 03:20:00,30.4,25.5,29.93,WSW,246,19.2,24.6,82,0.00,,BKN110,0.00,VWS V14.00,2013-01-06 09:20:00,
2013-01-06 03:30:00,29.3,24.2,29.93,West,281,16.6,20.1,81,0.00,,BKN110,0.00,VWS V14.00,2013-01-06 09:30:00,
2013-01-06 03:40:00,28.4,23.3,29.93,West,270,12.5,21.0,81,0.00,,BKN110,0.00,VWS V14.00,2013-01-06 09:40:00,
2013-01-06 03:50:00,27.9,23.1,29.93,WNW,285,16.6,21.0,82,0.00,,BKN110,0.00,VWS V14.00,2013-01-06 09:50:00,
2013-01-06 04:00:00,27.3,22.9,29.93,West,271,11.6,18.3,83,0.00,,BKN012,0.00,VWS V14.00,2013-01-06 10:00:00,
2013-01-06 04:10:00,27.0,22.5,29.93,WSW,251,12.5,17.4,83,0.00,,BKN012,0.00,VWS V14.00,2013-01-06 10:10:00,
2013-01-06 04:20:00,26.6,22.4,29.93,West,267,11.6,18.3,84,0.00,,BKN012,0.00,VWS V14.00,2013-01-06 10:20:00,
2013-01-06 04:30:00,26.2,21.8,29.93,West,267,11.6,21.0,83,0.00,,BKN012,0.00,VWS V14.00,2013-01-06 10:30:00,
2013-01-06 04:40:00,25.9,21.4,29.93,West,270,10.7,21.0,83,0.00,,BKN012,0.00,VWS V14.00,2013-01-06 10:40:00,
2013-01-06 04:50:00,25.9,21.1,29.93,West,271,17.4,20.1,82,0.00,,BKN014,0.00,VWS V14.00,2013-01-06 10:50:00,
2013-01-06 05:00:00,25.9,21.1,29.96,West,270,13.4,21.9,82,0.00,,OVC014,0.00,VWS V14.00,2013-01-06 11:00:00,
2013-01-06 05:10:00,25.2,19.9,29.96,West,272,25.5,26.4,80,0.00,,OVC014,0.00,VWS V14.00,2013-01-06 11:10:00,
2013-01-06 05:20:00,24.3,18.7,29.96,NW,304,12.5,25.5,79,0.00,,OVC014,0.00,VWS V14.00,2013-01-06 11:20:00,
2013-01-06 05:30:00,23.7,18.2,29.96,WSW,242,12.5,26.4,79,0.00,,OVC014,0.00,VWS V14.00,2013-01-06 11:30:00,
2013-01-06 05:40:00,23.4,17.5,29.96,NW,309,12.5,26.4,78,0.00,,OVC014,0.00,VWS V14.00,2013-01-06 11:40:00,
2013-01-06 05:50:00,23.2,17.6,29.96,West,270,10.7,16.6,79,0.00,,BKN018,0.00,VWS V14.00,2013-01-06 11:50:00,
2013-01-06 06:00:00,23.0,17.5,29.99,West,270,16.6,24.6,79,0.00,,BKN016,0.00,VWS V14.00,2013-01-06 12:00:00,
2013-01-06 06:10:00,22.6,17.1,29.99,West,267,12.5,17.4,79,0.00,,BKN016,0.00,VWS V14.00,2013-01-06 12:10:00,
2013-01-06 06:20:00,22.1,16.3,29.99,SW,221,12.5,21.9,78,0.00,,BKN016,0.00,VWS V14.00,2013-01-06 12:20:00,
2013-01-06 06:30:00,21.9,16.1,29.99,WNW,289,11.6,17.4,78,0.00,,BKN016,0.00,VWS V14.00,2013-01-06 12:30:00,
2013-01-06 06:40:00,21.6,16.1,29.99,WNW,285,10.7,16.6,79,0.00,,OVC016,0.00,VWS V14.00,2013-01-06 12:40:00,
2013-01-06 06:50:00,21.2,15.7,29.99,WNW,299,11.6,16.6,79,0.00,,BKN016,0.00,VWS V14.00,2013-01-06 12:50:00,
2013-01-06 07:00:00,21.0,15.5,29.99,WNW,284,9.8,13.4,79,0.00,,BKN016,0.00,VWS V14.00,2013-01-06 13:00:00,
2013-01-06 07:10:00,20.7,15.5,29.99,West,281,11.6,17.4,80,0.00,,SCT018,0.00,VWS V14.00,2013-01-06 13:10:00,
2013-01-06 07:20:00,20.3,15.1,29.99,WSW,250,12.5,20.1,80,0.00,,SCT018,0.00,VWS V14.00,2013-01-06 13:20:00,
2013-01-06 07:30:00,20.1,14.9,30.02,WNW,283,11.6,21.0,80,0.00,,CLR,0.00,VWS V14.00,2013-01-06 13:30:00,
2013-01-06 07:40:00,19.9,14.8,30.02,West,267,12.5,16.1,80,0.00,,CLR,0.00,VWS V14.00,2013-01-06 13:40:00,
2013-01-06 07:50:00,19.9,14.8,30.02,WNW,294,10.7,20.1,80,0.00,,BKN110,0.00,VWS V14.00,2013-01-06 13:50:00,
2013-01-06 08:00:00,19.9,14.8,30.02,WNW,286,14.3,17.4,80,0.00,,BKN110,0.00,VWS V14.00,2013-01-06 14:00:00,
2013-01-06 08:10:00,19.9,14.8,30.02,WNW,297,18.3,18.3,80,0.00,,SCT095,0.00,VWS V14.00,2013-01-06 14:10:00,
2013-01-06 08:20:00,20.1,14.7,30.02,WNW,290,15.2,18.3,79,0.00,,SCT095,0.00,VWS V14.00,2013-01-06 14:20:00,
2013-01-06 08:30:00,20.3,14.8,30.05,West,270,16.6,16.6,79,0.00,,SCT095,0.00,VWS V14.00,2013-01-06 14:30:00,
2013-01-06 08:40:00,20.5,15.0,30.05,WSW,253,12.5,21.9,79,0.00,,CLR,0.00,VWS V14.00,2013-01-06 14:40:00,
2013-01-06 08:50:00,20.7,14.9,30.05,West,267,12.5,21.0,78,0.00,,CLR,0.00,VWS V14.00,2013-01-06 14:50:00,
2013-01-06 09:00:00,20.7,14.9,30.05,WNW,282,10.7,17.4,78,0.00,,CLR,0.00,VWS V14.00,2013-01-06 15:00:00,
2013-01-06 09:10:00,20.8,15.1,30.08,WNW,297,12.5,19.2,78,0.00,,BKN018,0.00,VWS V14.00,2013-01-06 15:10:00,
2013-01-06 09:20:00,21.0,15.2,30.08,WNW,295,10.7,25.5,78,0.00,,BKN018,0.00,VWS V14.00,2013-01-06 15:20:00,
2013-01-06 09:30:00,21.6,15.5,30.08,WNW,285,14.3,21.9,77,0.00,,SCT018,0.00,VWS V14.00,2013-01-06 15:30:00,
2013-01-06 09:40:00,21.9,15.8,30.08,WNW,284,18.3,25.5,77,0.00,,SCT018,0.00,VWS V14.00,2013-01-06 15:40:00,
2013-01-06 09:50:00,22.3,16.2,30.08,NW,305,11.6,21.0,77,0.00,,BKN014,0.00,VWS V14.00,2013-01-06 15:50:00,
2013-01-06 10:00:00,22.5,16.4,30.08,WNW,300,10.7,17.4,77,0.00,,BKN014,0.00,VWS V14.00,2013-01-06 16:00:00,
2013-01-06 10:10:00,22.8,16.7,30.11,WNW,282,15.2,17.4,77,0.00,,OVC036,0.00,VWS V14.00,2013-01-06 16:10:00,
2013-01-06 10:20:00,23.5,17.4,30.11,NW,312,14.3,17.4,77,0.00,,OVC036,0.00,VWS V14.00,2013-01-06 16:20:00,
2013-01-06 10:30:00,23.7,17.6,30.11,WNW,291,10.7,15.2,77,0.00,,OVC036,0.00,VWS V14.00,2013-01-06 16:30:00,
2013-01-06 10:40:00,24.4,18.3,30.11,West,271,9.8,20.1,77,0.00,,OVC036,0.00,VWS V14.00,2013-01-06 16:40:00,
2013-01-06 10:50:00,24.8,18.3,30.11,WNW,287,16.6,21.0,76,0.00,,OVC034,0.00,VWS V14.00,2013-01-06 16:50:00,
2013-01-06 11:00:00,25.3,18.9,30.11,WNW,297,16.1,17.4,76,0.00,,OVC032,0.00,VWS V14.00,2013-01-06 17:00:00,
2013-01-06 11:10:00,25.9,19.4,30.11,WNW,291,10.7,16.6,76,0.00,,OVC032,0.00,VWS V14.00,2013-01-06 17:10:00,
2013-01-06 11:20:00,26.4,19.9,30.11,NW,322,8.1,14.3,76,0.00,,OVC032,0.00,VWS V14.00,2013-01-06 17:20:00,
2013-01-06 11:30:00,27.0,20.1,30.11,WNW,285,16.6,17.4,75,0.00,,OVC032,0.00,VWS V14.00,2013-01-06 17:30:00,
2013-01-06 11:40:00,27.0,20.1,30.11,WNW,303,16.1,21.9,75,0.00,,OVC032,0.00,VWS V14.00,2013-01-06 17:40:00,
2013-01-06 11:50:00,27.5,20.6,30.11,WNW,286,12.5,16.6,75,0.00,,OVC032,0.00,VWS V14.00,2013-01-06 17:50:00,
2013-01-06 12:00:00,27.5,20.6,30.11,WNW,285,9.8,17.4,75,0.00,,OVC032,0.00,VWS V14.00,2013-01-06 18:00:00,
2013-01-06 12:10:00,27.9,21.0,30.11,West,279,8.1,20.1,75,0.00,,OVC032,0.00,VWS V14.00,2013-01-06 18:10:00,
2013-01-06 12:20:00,27.9,21.0,30.11,West,263,16.1,20.1,75,0.00,,OVC032,0.00,VWS V14.00,2013-01-06 18:20:00,
2013-01-06 12:30:00,28.0,21.1,30.11,WNW,292,17.4,21.0,75,0.00,,OVC032,0.00,VWS V14.00,2013-01-06 18:30:00,
2013-01-06 12:40:00,28.6,21.4,30.11,WNW,301,16.1,21.9,74,0.00,,OVC095,0.00,VWS V14.00,2013-01-06 18:40:00,
2013-01-06 12:50:00,29.1,21.6,30.11,NNW,332,12.5,21.9,73,0.00,,BKN095,0.00,VWS V14.00,2013-01-06 18:50:00,
2013-01-06 13:00:00,29.5,21.6,30.11,West,267,8.1,16.6,72,0.00,,SCT034,0.00,VWS V14.00,2013-01-06 19:00:00,
2013-01-06 13:10:00,30.4,22.5,30.14,WSW,253,16.6,16.6,72,0.00,,SCT034,0.00,VWS V14.00,2013-01-06 19:10:00,
2013-01-06 13:20:00,30.6,21.6,30.14,NW,311,13.4,21.0,69,0.00,,SCT034,0.00,VWS V14.00,2013-01-06 19:20:00,
2013-01-06 13:30:00,29.8,20.9,30.14,WNW,295,11.6,21.9,69,0.00,,SCT034,0.00,VWS V14.00,2013-01-06 19:30:00,
2013-01-06 13:40:00,30.6,21.6,30.14,West,278,12.5,21.0,69,0.00,,SCT016,0.00,VWS V14.00,2013-01-06 19:40:00,
2013-01-06 13:50:00,30.6,21.3,30.14,NW,318,9.8,18.3,68,0.00,,SCT075,0.00,VWS V14.00,2013-01-06 19:50:00,
2013-01-06 14:00:00,30.7,21.8,30.14,WNW,301,12.5,12.5,69,0.00,,SCT075,0.00,VWS V14.00,2013-01-06 20:00:00,
2013-01-06 14:10:00,30.9,22.0,30.14,WNW,291,10.7,16.6,69,0.00,,SCT075,0.00,VWS V14.00,2013-01-06 20:10:00,
2013-01-06 14:20:00,30.9,22.0,30.14,West,280,7.2,17.4,69,0.00,,SCT075,0.00,VWS V14.00,2013-01-06 20:20:00,
2013-01-06 14:30:00,31.3,22.0,30.17,West,270,6.3,16.1,68,0.00,,CLR,0.00,VWS V14.00,2013-01-06 20:30:00,
2013-01-06 14:40:00,30.6,21.3,30.17,West,267,11.6,16.6,68,0.00,,CLR,0.00,VWS V14.00,2013-01-06 20:40:00,
2013-01-06 15:00:00,30.7,21.4,30.17,WNW,299,8.9,16.1,68,0.00,,CLR,0.00,VWS V14.00,2013-01-06 21:00:00,
2013-01-06 15:10:00,31.1,21.8,30.17,West,277,10.7,14.3,68,0.00,,CLR,0.00,VWS V14.00,2013-01-06 21:10:00,
2013-01-06 15:20:00,30.9,21.3,30.17,NW,305,9.8,12.5,67,0.00,,CLR,0.00,VWS V14.00,2013-01-06 21:20:00,
2013-01-06 15:30:00,30.4,20.8,30.20,West,278,9.8,17.4,67,0.00,,CLR,0.00,VWS V14.00,2013-01-06 21:30:00,
2013-01-06 15:40:00,30.2,20.6,30.20,WNW,291,8.1,12.5,67,0.00,,CLR,0.00,VWS V14.00,2013-01-06 21:40:00,
2013-01-06 15:50:00,30.0,20.4,30.20,NW,304,12.5,16.6,67,0.00,,CLR,0.00,VWS V14.00,2013-01-06 21:50:00,
2013-01-06 16:00:00,29.8,20.6,30.20,West,259,5.4,15.2,68,0.00,,CLR,0.00,VWS V14.00,2013-01-06 22:00:00,
2013-01-06 16:10:00,29.5,20.6,30.20,WNW,290,8.1,12.5,69,0.00,,CLR,0.00,VWS V14.00,2013-01-06 22:10:00,
2013-01-06 16:20:00,29.1,20.6,30.20,WNW,286,9.8,15.2,70,0.00,,CLR,0.00,VWS V14.00,2013-01-06 22:20:00,
2013-01-06 16:30:00,28.6,20.0,30.23,West,273,8.1,15.2,70,0.00,,CLR,0.00,VWS V14.00,2013-01-06 22:30:00,
2013-01-06 16:40:00,28.4,20.2,30.23,West,270,8.1,11.6,71,0.00,,CLR,0.00,VWS V14.00,2013-01-06 22:40:00,
2013-01-06 16:50:00,28.0,20.2,30.23,West,279,0.0,13.4,72,0.00,,CLR,0.00,VWS V14.00,2013-01-06 22:50:00,
2013-01-06 17:00:00,27.7,20.2,30.23,West,270,8.1,10.7,73,0.00,,CLR,0.00,VWS V14.00,2013-01-06 23:00:00,
2013-01-06 17:10:00,27.1,20.0,30.23,West,267,12.5,12.5,74,0.00,,CLR,0.00,VWS V14.00,2013-01-06 23:10:00,
2013-01-06 17:20:00,26.8,19.9,30.23,West,267,5.4,12.5,75,0.00,,CLR,0.00,VWS V14.00,2013-01-06 23:20:00,
2013-01-06 17:30:00,26.1,19.5,30.23,West,263,11.6,16.1,76,0.00,,CLR,0.00,VWS V14.00,2013-01-06 23:30:00,
2013-01-06 17:40:00,25.5,19.6,30.26,West,281,11.6,13.4,78,0.00,,CLR,0.00,VWS V14.00,2013-01-06 23:40:00,
2013-01-06 17:50:00,25.0,19.4,30.26,WNW,289,10.7,16.1,79,0.00,,CLR,0.00,VWS V14.00,2013-01-06 23:50:00,
2013-01-06 18:00:00,24.6,19.3,30.26,WSW,250,7.2,12.5,80,0.00,,CLR,0.00,VWS V14.00,2013-01-07 00:00:00,
2013-01-06 18:10:00,24.3,19.0,30.26,SW,230,11.6,11.6,80,0.00,,CLR,0.00,VWS V14.00,2013-01-07 00:10:00,
2013-01-06 18:20:00,23.9,18.9,30.26,West,279,8.1,11.6,81,0.00,,CLR,0.00,VWS V14.00,2013-01-07 00:20:00,
2013-01-06 18:30:00,23.7,18.8,30.26,WSW,240,7.2,9.8,81,0.00,,CLR,0.00,VWS V14.00,2013-01-07 00:30:00,
2013-01-06 18:40:00,23.4,18.7,30.26,West,263,7.2,11.6,82,0.00,,CLR,0.00,VWS V14.00,2013-01-07 00:40:00,
2013-01-06 18:50:00,23.2,18.5,30.26,West,277,9.8,11.6,82,0.00,,CLR,0.00,VWS V14.00,2013-01-07 00:50:00,
2013-01-06 19:00:00,22.8,18.4,30.29,WSW,237,0.0,9.8,83,0.00,,CLR,0.00,VWS V14.00,2013-01-07 01:00:00,
2013-01-06 19:10:00,22.6,18.5,30.29,WSW,242,0.0,7.2,84,0.00,,CLR,0.00,VWS V14.00,2013-01-07 01:10:00,
2013-01-06 19:20:00,22.3,18.2,30.29,WSW,239,5.4,8.9,84,0.00,,CLR,0.00,VWS V14.00,2013-01-07 01:20:00,
2013-01-06 19:30:00,22.1,18.0,30.29,WSW,240,4.5,7.2,84,0.00,,CLR,0.00,VWS V14.00,2013-01-07 01:30:00,
2013-01-06 19:40:00,21.9,18.1,30.29,WSW,239,0.0,7.2,85,0.00,,CLR,0.00,VWS V14.00,2013-01-07 01:40:00,
2013-01-06 19:50:00,21.6,17.8,30.29,SSW,199,0.0,0.0,85,0.00,,CLR,0.00,VWS V14.00,2013-01-07 01:50:00,
2013-01-06 20:00:00,21.2,17.4,30.29,South,186,0.0,0.0,85,0.00,,CLR,0.00,VWS V14.00,2013-01-07 02:00:00,
2013-01-06 20:10:00,20.8,17.0,30.29,SW,232,0.0,0.0,85,0.00,,CLR,0.00,VWS V14.00,2013-01-07 02:10:00,
2013-01-06 20:20:00,20.5,17.0,30.29,SW,232,0.0,0.0,86,0.00,,CLR,0.00,VWS V14.00,2013-01-07 02:20:00,
2013-01-06 20:30:00,20.7,17.1,30.29,SSW,207,0.0,0.0,86,0.00,,CLR,0.00,VWS V14.00,2013-01-07 02:30:00,
2013-01-06 20:40:00,20.3,16.8,30.29,SSW,207,0.0,0.0,86,0.00,,CLR,0.00,VWS V14.00,2013-01-07 02:40:00,
2013-01-06 20:50:00,19.9,16.7,30.29,SSW,207,0.0,0.0,87,0.00,,CLR,0.00,VWS V14.00,2013-01-07 02:50:00,
2013-01-06 21:00:00,19.8,16.5,30.29,SSW,207,0.0,0.0,87,0.00,,,0.00,VWS V14.00,2013-01-07 03:00:00,
2013-01-06 21:10:00,19.4,16.2,30.29,SW,223,0.0,0.0,87,0.00,,,0.00,VWS V14.00,2013-01-07 03:10:00,
2013-01-06 21:20:00,19.6,16.6,30.29,SW,225,0.0,5.4,88,0.00,,,0.00,VWS V14.00,2013-01-07 03:20:00,
2013-01-06 21:30:00,19.8,16.8,30.29,SSW,212,0.0,5.4,88,0.00,,CLR,0.00,VWS V14.00,2013-01-07 03:30:00,
2013-01-06 21:40:00,19.8,16.8,30.29,SW,216,0.0,0.0,88,0.00,,CLR,0.00,VWS V14.00,2013-01-07 03:40:00,
2013-01-06 21:50:00,19.4,16.4,30.29,SW,216,0.0,0.0,88,0.00,,CLR,0.00,VWS V14.00,2013-01-07 03:50:00,
2013-01-06 22:00:00,19.0,16.1,30.29,SW,220,0.0,0.0,88,0.00,,CLR,0.00,VWS V14.00,2013-01-07 04:00:00,
2013-01-06 22:10:00,19.0,16.1,30.29,SW,220,0.0,0.0,88,0.00,,CLR,0.00,VWS V14.00,2013-01-07 04:10:00,
2013-01-06 22:20:00,18.7,15.5,30.29,SW,220,0.0,0.0,87,0.00,,CLR,0.00,VWS V14.00,2013-01-07 04:20:00,
2013-01-06 22:30:00,18.1,14.9,30.29,SW,226,0.0,0.0,87,0.00,,CLR,0.00,VWS V14.00,2013-01-07 04:30:00,
2013-01-06 22:40:00,18.0,15.0,30.32,SW,220,0.0,0.0,88,0.00,,CLR,0.00,VWS V14.00,2013-01-07 04:40:00,
2013-01-06 22:50:00,18.0,15.0,30.32,SW,217,0.0,0.0,88,0.00,,CLR,0.00,VWS V14.00,2013-01-07 04:50:00,
2013-01-06 23:10:00,17.6,14.9,30.32,SW,218,0.0,0.0,89,0.00,,CLR,0.00,VWS V14.00,2013-01-07 05:10:00,
2013-01-06 23:20:00,17.6,14.7,30.32,SW,218,0.0,0.0,88,0.00,,CLR,0.00,VWS V14.00,2013-01-07 05:20:00,
2013-01-06 23:30:00,17.2,14.3,30.32,SW,218,0.0,0.0,88,0.00,,CLR,0.00,VWS V14.00,2013-01-07 05:30:00,
2013-01-06 23:40:00,17.6,14.7,30.32,SSW,207,0.0,0.0,88,0.00,,CLR,0.00,VWS V14.00,2013-01-07 05:40:00,
2013-01-06 23:50:00,16.7,13.5,30.32,SW,216,0.0,0.0,87,0.00,,CLR,0.00,VWS V14.00,2013-01-07 05:50:00,